createdAt,value
2023-10-15T00:00:27.251Z,2.30
2023-10-15T00:02:54.884Z,1.75
2023-10-15T00:05:29.317Z,1.30
2023-10-15T00:07:58.633Z,1.17
2023-10-15T00:10:31.971Z,1.05
2023-10-15T00:13:00.484Z,1.30
2023-10-15T00:15:31.705Z,1.05
2023-10-15T00:18:03.743Z,1.00
2023-10-15T00:20:36.588Z,1.23
2023-10-15T00:23:07.688Z,1.17
2023-10-15T00:25:44.660Z,1.77
2023-10-15T00:28:19.481Z,33.20
2023-10-15T00:30:46.717Z,150.63
2023-10-15T00:33:14.126Z,54.30
2023-10-15T00:35:46.733Z,48.55
2023-10-15T00:38:21.154Z,55.03
2023-10-15T00:40:55.536Z,216.93
2023-10-15T00:43:23.160Z,58.60
2023-10-15T00:45:50.860Z,54.80
2023-10-15T00:48:37.811Z,54.28
2023-10-15T00:51:10.224Z,101.28
2023-10-15T00:53:45.492Z,99.63
2023-10-15T00:56:12.667Z,14.23
2023-10-15T00:58:39.792Z,4.10
2023-10-15T01:01:20.068Z,2.33
2023-10-15T01:03:52.220Z,2.40
2023-10-15T01:06:31.051Z,2.27
2023-10-15T01:09:09.943Z,2.77
2023-10-15T01:11:40.408Z,2.60
2023-10-15T01:14:11.929Z,2.53
2023-10-15T01:16:40.409Z,2.10
2023-10-15T01:19:13.874Z,2.00
2023-10-15T01:21:50.949Z,1.83
2023-10-15T01:24:21.151Z,1.50
2023-10-15T01:27:01.681Z,1.92
2023-10-15T01:29:29.418Z,1.83
2023-10-15T01:32:09.157Z,1.85
2023-10-15T01:34:39.451Z,1.90
2023-10-15T01:37:36.248Z,1.90
2023-10-15T01:40:12.106Z,1.40
2023-10-15T01:42:42.209Z,1.73
2023-10-15T01:45:12.665Z,2.00
2023-10-15T01:47:55.118Z,1.95
2023-10-15T01:50:25.965Z,1.73
2023-10-15T01:52:56.235Z,1.60
2023-10-15T01:55:29.828Z,1.30
2023-10-15T01:58:04.519Z,1.70
2023-10-15T02:00:35.574Z,1.73
2023-10-15T02:03:02.793Z,1.50
2023-10-15T02:05:42.930Z,1.60
2023-10-15T02:08:13.886Z,1.52
2023-10-15T02:10:47.295Z,1.63
2023-10-15T02:13:18.487Z,1.50
2023-10-15T02:15:50.645Z,1.42
2023-10-15T02:18:21.360Z,1.52
2023-10-15T02:20:54.408Z,1.48
2023-10-15T02:23:21.902Z,1.58
2023-10-15T02:26:08.032Z,1.40
2023-10-15T02:28:40.915Z,1.55
2023-10-15T02:31:10.935Z,1.60
2023-10-15T02:33:39.388Z,1.50
2023-10-15T02:36:10.794Z,1.30
2023-10-15T02:38:39.459Z,1.58
2023-10-15T02:41:12.592Z,1.30
2023-10-15T02:43:47.584Z,1.30
2023-10-15T02:46:23.242Z,1.40
2023-10-15T02:48:56.887Z,1.10
2023-10-15T02:51:24.687Z,1.60
2023-10-15T02:54:02.563Z,1.23
2023-10-15T02:56:32.491Z,1.27
2023-10-15T02:59:05.769Z,1.40
2023-10-15T03:01:36.134Z,1.52
2023-10-15T03:04:10.331Z,1.42
2023-10-15T03:06:45.498Z,1.15
2023-10-15T03:09:12.992Z,1.48
2023-10-15T03:11:42.234Z,1.50
2023-10-15T03:14:13.604Z,1.10
2023-10-15T03:16:45.001Z,1.40
2023-10-15T03:19:27.876Z,1.40
2023-10-15T03:21:59.318Z,1.50
2023-10-15T03:24:28.488Z,1.90
2023-10-15T03:26:57.289Z,1.60
2023-10-15T03:29:25.008Z,1.75
2023-10-15T03:32:03.720Z,1.25
2023-10-15T03:34:34.692Z,1.58
2023-10-15T03:37:14.845Z,1.70
2023-10-15T03:39:42.055Z,1.73
2023-10-15T03:42:15.561Z,1.30
2023-10-15T03:44:46.380Z,1.15
2023-10-15T03:47:14.941Z,1.80
2023-10-15T03:49:42.295Z,1.70
2023-10-15T03:52:10.241Z,1.60
2023-10-15T03:54:39.456Z,1.60
2023-10-15T03:57:12.947Z,1.55
2023-10-15T03:59:46.202Z,1.33
2023-10-15T04:02:23.745Z,1.27
2023-10-15T04:05:02.459Z,1.42
2023-10-15T04:10:01.909Z,1.20
2023-10-15T04:12:35.481Z,1.40
2023-10-15T04:15:15.600Z,1.60
2023-10-15T04:17:46.082Z,1.75
2023-10-15T04:20:16.265Z,1.30
2023-10-15T04:22:48.724Z,1.27
2023-10-15T04:25:34.688Z,1.80
2023-10-15T04:28:15.296Z,1.60
2023-10-15T04:30:43.629Z,1.67
2023-10-15T04:33:16.490Z,1.52
2023-10-15T04:35:43.750Z,1.70
2023-10-15T04:38:23.098Z,1.50
2023-10-15T04:41:02.145Z,1.50
2023-10-15T04:43:29.713Z,1.70
2023-10-15T04:45:58.313Z,1.77
2023-10-15T04:48:30.898Z,1.53
2023-10-15T04:51:13.071Z,1.10
2023-10-15T04:53:49.367Z,1.30
2023-10-15T04:56:16.814Z,1.23
2023-10-15T04:58:44.474Z,1.23
2023-10-15T05:01:11.690Z,1.67
2023-10-15T05:03:39.501Z,1.23
2023-10-15T05:06:12.205Z,1.30
2023-10-15T05:08:41.706Z,1.75
2023-10-15T05:11:12.703Z,1.90
2023-10-15T05:13:43.645Z,1.85
2023-10-15T05:16:10.975Z,1.77
2023-10-15T05:18:38.120Z,1.80
2023-10-15T05:21:08.102Z,1.70
2023-10-15T05:23:35.393Z,1.58
2023-10-15T05:26:02.831Z,1.98
2023-10-15T05:28:30.560Z,1.58
2023-10-15T05:31:01.959Z,1.50
2023-10-15T05:33:29.713Z,1.92
2023-10-15T05:35:58.254Z,1.97
2023-10-15T05:38:31.517Z,1.85
2023-10-15T05:41:01.616Z,2.27
2023-10-15T05:43:29.035Z,2.35
2023-10-15T05:45:56.635Z,1.90
2023-10-15T05:48:23.842Z,1.90
2023-10-15T05:50:51.589Z,2.00
2023-10-15T05:53:18.865Z,2.20
2023-10-15T05:55:46.452Z,2.20
2023-10-15T05:58:13.956Z,1.98
2023-10-15T06:00:41.200Z,2.00
2023-10-15T06:03:11.965Z,2.22
2023-10-15T06:05:40.360Z,2.33
2023-10-15T06:08:08.396Z,3.03
2023-10-15T06:10:36.140Z,2.58
2023-10-15T06:13:03.397Z,2.35
2023-10-15T06:15:34.474Z,1.90
2023-10-15T06:18:05.258Z,1.95
2023-10-15T06:20:32.568Z,2.15
2023-10-15T06:23:05.107Z,1.92
2023-10-15T06:25:36.689Z,2.30
2023-10-15T06:28:07.409Z,1.95
2023-10-15T06:30:34.506Z,2.13
2023-10-15T06:33:01.636Z,2.08
2023-10-15T06:35:31.019Z,1.70
2023-10-15T06:37:58.841Z,1.70
2023-10-15T06:40:33.252Z,1.23
2023-10-15T06:43:03.528Z,192.77
2023-10-15T06:45:31.342Z,248.32
2023-10-15T06:47:58.991Z,80.18
2023-10-15T06:50:27.653Z,278.65
2023-10-15T06:52:58.225Z,78.82
2023-10-15T06:55:25.412Z,160.27
2023-10-15T06:57:52.672Z,318.33
2023-10-15T07:00:23.482Z,265.00
2023-10-15T07:02:54.874Z,483.02
2023-10-15T07:05:24.786Z,396.85
2023-10-15T07:07:52.338Z,337.35
2023-10-15T07:10:21.942Z,516.42
2023-10-15T07:12:52.595Z,365.35
2023-10-15T07:15:25.142Z,340.23
2023-10-15T07:17:52.698Z,324.00
2023-10-15T07:20:22.364Z,380.33
2023-10-15T07:22:50.908Z,294.80
2023-10-15T07:25:19.178Z,440.30
2023-10-15T07:27:47.304Z,445.73
2023-10-15T07:30:15.304Z,228.57
2023-10-15T07:32:43.949Z,294.17
2023-10-15T07:35:15.495Z,293.27
2023-10-15T07:37:43.423Z,476.75
2023-10-15T07:40:19.984Z,295.23
2023-10-15T07:42:51.172Z,346.17
2023-10-15T07:45:19.505Z,219.80
2023-10-15T07:47:47.230Z,223.00
2023-10-15T07:50:18.137Z,307.30
2023-10-15T07:52:46.909Z,182.82
2023-10-15T07:55:14.925Z,229.65
2023-10-15T07:57:42.194Z,171.07
2023-10-15T08:00:10.327Z,182.77
2023-10-15T08:02:40.519Z,20.58
2023-10-15T08:05:08.853Z,1.88
2023-10-15T08:07:42.529Z,1.50
2023-10-15T08:10:10.641Z,70.43
2023-10-15T08:12:37.969Z,320.23
2023-10-15T08:15:05.539Z,377.90
2023-10-15T08:17:32.876Z,319.07
2023-10-15T08:20:00.419Z,291.55
2023-10-15T08:22:29.257Z,309.45
2023-10-15T08:24:59.469Z,232.35
2023-10-15T08:27:27.358Z,235.15
2023-10-15T08:29:54.546Z,206.90
2023-10-15T08:32:22.083Z,177.93
2023-10-15T08:34:49.887Z,121.67
2023-10-15T08:37:17.116Z,107.30
2023-10-15T08:39:44.300Z,50.85
2023-10-15T08:42:21.531Z,60.35
2023-10-15T08:44:51.174Z,56.50
2023-10-15T08:47:21.147Z,27.95
2023-10-15T08:52:36.127Z,25.80
2023-10-15T08:55:08.018Z,13.00
2023-10-15T08:57:36.157Z,31.63
2023-10-15T09:00:11.554Z,89.25
2023-10-15T09:02:50.716Z,114.67
2023-10-15T09:05:18.086Z,171.93
2023-10-15T09:07:48.351Z,178.43
2023-10-15T09:10:16.628Z,115.97
2023-10-15T09:12:43.896Z,112.63
2023-10-15T09:15:20.052Z,194.55
2023-10-15T09:18:00.333Z,144.73
2023-10-15T09:20:28.495Z,5.63
2023-10-15T09:23:04.208Z,1.33
2023-10-15T09:25:31.972Z,1.00
2023-10-15T09:28:00.481Z,1.15
2023-10-15T09:30:28.541Z,292.33
2023-10-15T09:32:56.296Z,101.90
2023-10-15T09:35:26.645Z,296.13
2023-10-15T09:37:57.828Z,245.33
2023-10-15T09:40:36.902Z,21.67
2023-10-15T09:43:09.325Z,27.13
2023-10-15T09:45:36.537Z,31.73
2023-10-15T09:48:04.121Z,46.40
2023-10-15T09:50:39.294Z,0.90
2023-10-15T09:53:14.119Z,1.30
2023-10-15T09:55:42.251Z,11.48
2023-10-15T09:58:13.809Z,2.40
2023-10-15T10:00:54.860Z,0.77
2023-10-15T10:03:41.094Z,0.60
2023-10-15T10:06:18.572Z,2.10
2023-10-15T10:08:45.613Z,464.98
2023-10-15T10:11:19.162Z,124.25
2023-10-15T10:13:54.628Z,140.40
2023-10-15T10:16:28.193Z,4.55
2023-10-15T10:18:56.314Z,20.65
2023-10-15T10:21:23.538Z,56.03
2023-10-15T10:23:54.321Z,47.93
2023-10-15T10:26:21.959Z,135.27
2023-10-15T10:28:49.415Z,459.17
2023-10-15T10:31:20.137Z,46.95
2023-10-15T10:33:51.369Z,3.47
2023-10-15T10:36:23.196Z,2.95
2023-10-15T10:39:10.993Z,2.40
2023-10-15T10:41:38.351Z,2.70
2023-10-15T10:44:35.639Z,5.47
2023-10-15T10:47:17.961Z,0.90
2023-10-15T10:49:56.733Z,1.13
2023-10-15T10:52:37.847Z,1.50
2023-10-15T10:55:23.899Z,1.42
2023-10-15T10:57:55.175Z,1.00
2023-10-15T11:00:22.338Z,0.70
2023-10-15T11:02:50.200Z,6.07
2023-10-15T11:05:19.398Z,3.53
2023-10-15T11:07:49.732Z,2.03
2023-10-15T11:10:18.389Z,0.95
2023-10-15T11:12:48.959Z,2.10
2023-10-15T11:15:16.125Z,0.60
2023-10-15T11:18:06.156Z,0.70
2023-10-15T11:20:34.515Z,202.07
2023-10-15T11:23:02.790Z,105.22
2023-10-15T11:25:30.326Z,1.15
2023-10-15T11:28:03.876Z,1.20
2023-10-15T11:30:31.034Z,19.83
2023-10-15T11:32:58.233Z,88.70
2023-10-15T11:35:25.881Z,2.85
2023-10-15T11:38:00.445Z,10.37
2023-10-15T11:40:27.863Z,3.05
2023-10-15T11:42:55.696Z,2.28
2023-10-15T11:45:32.715Z,16.13
2023-10-15T11:48:00.227Z,25.90
2023-10-15T11:50:28.218Z,14.88
2023-10-15T11:53:00.167Z,56.28
2023-10-15T11:55:32.774Z,0.50
2023-10-15T11:58:11.633Z,0.50
2023-10-15T12:00:40.951Z,0.60
2023-10-15T12:03:10.498Z,1.93
2023-10-15T12:05:38.528Z,82.82
2023-10-15T12:08:09.117Z,24.88
2023-10-15T12:10:36.491Z,46.30
2023-10-15T12:13:11.491Z,78.43
2023-10-15T12:15:38.616Z,21.00
2023-10-15T12:18:06.081Z,0.20
2023-10-15T12:20:34.202Z,86.40
2023-10-15T12:23:01.507Z,139.23
2023-10-15T12:25:28.909Z,36.42
2023-10-15T12:27:56.368Z,82.57
2023-10-15T12:30:32.005Z,156.17
2023-10-15T12:33:02.120Z,397.85
2023-10-15T12:35:32.551Z,255.05
2023-10-15T12:38:03.089Z,557.13
2023-10-15T12:40:33.745Z,436.65
2023-10-15T12:43:10.267Z,222.40
2023-10-15T12:45:38.085Z,334.67
2023-10-15T12:48:12.785Z,455.35
2023-10-15T12:50:40.171Z,638.53
2023-10-15T12:53:07.515Z,640.03
2023-10-15T12:55:35.453Z,552.47
2023-10-15T12:58:04.057Z,668.22
2023-10-15T13:00:33.997Z,772.97
2023-10-15T13:03:01.812Z,689.72
2023-10-15T13:05:29.257Z,439.70
2023-10-15T13:07:57.731Z,380.35
2023-10-15T13:10:25.954Z,405.77
2023-10-15T13:12:53.862Z,310.45
2023-10-15T13:15:22.772Z,800.03
2023-10-15T13:17:57.508Z,838.72
2023-10-15T13:20:28.280Z,849.03
2023-10-15T13:22:55.676Z,871.88
2023-10-15T13:25:23.520Z,253.23
2023-10-15T13:27:51.040Z,297.08
2023-10-15T13:30:18.472Z,653.40
2023-10-15T13:32:47.316Z,163.63
2023-10-15T13:35:17.624Z,9.77
2023-10-15T13:37:45.593Z,2.40
2023-10-15T13:40:13.691Z,5.45
2023-10-15T13:42:43.355Z,56.80
2023-10-15T13:45:11.929Z,115.85
2023-10-15T13:47:39.617Z,232.67
2023-10-15T13:50:08.013Z,85.75
2023-10-15T13:52:38.747Z,83.40
2023-10-15T13:55:06.380Z,149.25
2023-10-15T13:57:33.788Z,389.95
2023-10-15T14:00:00.942Z,152.93
2023-10-15T14:02:28.473Z,87.57
2023-10-15T14:04:55.837Z,53.75
2023-10-15T14:07:29.008Z,1.75
2023-10-15T14:10:02.025Z,141.77
2023-10-15T14:12:30.629Z,12.65
2023-10-15T14:14:58.342Z,1.60
2023-10-15T14:17:26.407Z,30.40
2023-10-15T14:19:55.907Z,257.70
2023-10-15T14:22:24.642Z,252.25
2023-10-15T14:24:51.878Z,494.05
2023-10-15T14:27:19.232Z,328.48
2023-10-15T14:29:47.907Z,203.10
2023-10-15T14:32:15.286Z,61.08
2023-10-15T14:34:43.331Z,97.17
2023-10-15T14:37:12.961Z,325.05
2023-10-15T14:39:40.035Z,101.23
2023-10-15T14:42:12.980Z,104.13
2023-10-15T14:44:40.186Z,87.03
2023-10-15T14:47:09.457Z,76.13
2023-10-15T14:49:39.763Z,105.78
2023-10-15T14:52:06.936Z,50.72
2023-10-15T14:54:34.091Z,274.15
2023-10-15T14:57:01.302Z,422.92
2023-10-15T14:59:29.210Z,484.48
2023-10-15T15:01:56.550Z,353.92
2023-10-15T15:04:29.617Z,299.52
2023-10-15T15:06:57.185Z,119.15
2023-10-15T15:09:25.336Z,138.70
2023-10-15T15:11:52.506Z,329.20
2023-10-15T15:14:19.928Z,171.57
2023-10-15T15:16:48.460Z,215.20
2023-10-15T15:19:15.704Z,50.53
2023-10-15T15:21:43.280Z,52.55
2023-10-15T15:24:21.143Z,25.07
2023-10-15T15:26:48.311Z,29.05
2023-10-15T15:29:17.064Z,35.55
2023-10-15T15:31:44.881Z,34.17
2023-10-15T15:34:12.154Z,164.57
2023-10-15T15:36:41.688Z,427.80
2023-10-15T15:39:10.986Z,153.02
2023-10-15T15:41:45.155Z,39.67
2023-10-15T15:44:13.556Z,84.00
2023-10-15T15:46:42.296Z,23.10
2023-10-15T15:49:12.432Z,14.18
2023-10-15T15:51:42.329Z,4.47
2023-10-15T15:54:09.465Z,1.60
2023-10-15T15:56:37.015Z,1.48
2023-10-15T15:59:04.309Z,0.80
2023-10-15T16:01:44.184Z,1.00
2023-10-15T16:04:12.682Z,286.83
2023-10-15T16:06:40.357Z,132.63
2023-10-15T16:09:11.239Z,82.30
2023-10-15T16:11:39.309Z,72.20
2023-10-15T16:14:12.649Z,479.83
2023-10-15T16:16:40.051Z,9.68
2023-10-15T16:19:07.497Z,5.73
2023-10-15T16:21:34.645Z,2.63
2023-10-15T16:24:03.589Z,48.83
2023-10-15T16:26:35.081Z,462.08
2023-10-15T16:29:02.477Z,141.15
2023-10-15T16:31:30.411Z,372.87
2023-10-15T16:33:58.045Z,22.27
2023-10-15T16:36:25.174Z,1.30
2023-10-15T16:38:52.298Z,1.60
2023-10-15T16:41:22.284Z,444.50
2023-10-15T16:43:49.441Z,456.20
2023-10-15T16:46:16.776Z,8.88
2023-10-15T16:48:44.006Z,16.63
2023-10-15T16:51:24.168Z,57.53
2023-10-15T16:53:52.998Z,77.68
2023-10-15T16:56:20.384Z,37.53
2023-10-15T16:58:48.150Z,168.43
2023-10-15T17:01:16.871Z,6.38
2023-10-15T17:03:46.551Z,2.88
2023-10-15T17:06:14.504Z,4.38
2023-10-15T17:08:41.638Z,3.78
2023-10-15T17:11:08.745Z,2.03
2023-10-15T17:13:35.890Z,1.30
2023-10-15T17:16:03.058Z,1.27
2023-10-15T17:18:30.335Z,1.40
2023-10-15T17:20:57.751Z,1.03
2023-10-15T17:23:25.584Z,1.00
2023-10-15T17:25:52.874Z,1.10
2023-10-15T17:28:21.693Z,1.27
2023-10-15T17:30:48.883Z,1.20
2023-10-15T17:33:16.100Z,1.17
2023-10-15T17:35:43.357Z,1.00
2023-10-15T17:38:11.546Z,1.13
2023-10-15T17:40:42.408Z,1.53
2023-10-15T17:43:10.730Z,1.10
2023-10-15T17:45:39.095Z,1.55
2023-10-15T17:48:09.865Z,0.82
2023-10-15T17:50:41.984Z,0.70
2023-10-15T17:53:09.141Z,0.80
2023-10-15T17:55:36.331Z,0.90
2023-10-15T17:58:03.495Z,1.02
2023-10-15T18:00:32.173Z,1.00
2023-10-15T18:02:59.691Z,2.00
2023-10-15T18:05:27.656Z,125.45
2023-10-15T18:07:54.779Z,10.38
2023-10-15T18:10:23.324Z,189.07
2023-10-15T18:12:53.575Z,117.53
2023-10-15T18:15:30.534Z,26.17
2023-10-15T18:17:58.540Z,2.17
2023-10-15T18:20:28.448Z,1.60
2023-10-15T18:22:55.566Z,1.20
2023-10-15T18:25:25.837Z,1.08
2023-10-15T18:27:53.544Z,11.57
2023-10-15T18:30:20.719Z,1.10
2023-10-15T18:32:47.928Z,1.70
2023-10-15T18:35:17.732Z,153.77
2023-10-15T18:37:48.387Z,291.63
2023-10-15T18:40:16.474Z,30.83
2023-10-15T18:42:46.426Z,22.13
2023-10-15T18:45:13.712Z,74.95
2023-10-15T18:47:41.122Z,8.80
2023-10-15T18:50:09.124Z,1.40
2023-10-15T18:52:37.049Z,1.73
2023-10-15T18:55:05.394Z,7.05
2023-10-15T18:57:35.158Z,6.47
2023-10-15T19:00:04.154Z,43.05
2023-10-15T19:02:31.501Z,31.45
2023-10-15T19:04:58.637Z,67.93
2023-10-15T19:07:25.768Z,12.20
2023-10-15T19:09:52.930Z,45.75
2023-10-15T19:12:20.336Z,6.22
2023-10-15T19:14:48.062Z,1.40
2023-10-15T19:17:15.283Z,1.30
2023-10-15T19:19:45.487Z,2.40
2023-10-15T19:22:15.740Z,1.88
2023-10-15T19:24:42.955Z,23.23
2023-10-15T19:27:11.724Z,1.73
2023-10-15T19:29:40.165Z,20.30
2023-10-15T19:32:07.303Z,67.70
2023-10-15T19:34:34.439Z,40.22
2023-10-15T19:37:01.688Z,78.05
2023-10-15T19:39:29.084Z,38.03
2023-10-15T19:41:58.043Z,89.32
2023-10-15T19:44:25.405Z,1.10
2023-10-15T19:46:54.140Z,0.90
2023-10-15T19:49:21.916Z,0.77
2023-10-15T19:51:49.162Z,0.95
2023-10-15T19:54:17.347Z,16.02
2023-10-15T19:56:44.735Z,27.53
2023-10-15T19:59:11.904Z,1.20
2023-10-15T20:01:41.663Z,0.80
2023-10-15T20:04:09.046Z,0.95
2023-10-15T20:06:37.241Z,0.70
2023-10-15T20:09:10.620Z,0.90
2023-10-15T20:11:38.051Z,2.17
2023-10-15T20:14:05.346Z,1.20
2023-10-15T20:16:32.653Z,3.13
2023-10-15T20:19:01.066Z,3.35
2023-10-15T20:21:28.333Z,1.02
2023-10-15T20:23:56.079Z,0.77
2023-10-15T20:26:23.271Z,1.00
2023-10-15T20:28:50.419Z,0.82
2023-10-15T20:31:19.967Z,0.90
2023-10-15T20:33:47.246Z,1.10
2023-10-15T20:36:14.901Z,3.72
2023-10-15T20:38:42.129Z,0.90
2023-10-15T20:41:09.244Z,4.22
2023-10-15T20:43:42.226Z,1.02
2023-10-15T20:46:10.604Z,1.02
2023-10-15T20:48:41.724Z,0.73
2023-10-15T20:51:08.998Z,0.80
2023-10-15T20:53:36.166Z,0.80
2023-10-15T20:56:03.322Z,1.17
2023-10-15T20:58:33.654Z,1.08
2023-10-15T21:01:00.958Z,1.40
2023-10-15T21:03:28.226Z,0.90
2023-10-15T21:05:55.552Z,1.10
2023-10-15T21:08:22.796Z,1.20
2023-10-15T21:10:50.123Z,1.40
2023-10-15T21:13:17.259Z,1.10
2023-10-15T21:15:47.662Z,1.20
2023-10-15T21:18:17.244Z,1.27
2023-10-15T21:20:47.696Z,1.00
2023-10-15T21:23:15.010Z,1.08
2023-10-15T21:25:42.209Z,1.00
2023-10-15T21:28:09.383Z,1.10
2023-10-15T21:30:36.611Z,0.87
2023-10-15T21:33:04.239Z,0.95
2023-10-15T21:35:37.882Z,0.90
2023-10-15T21:38:05.242Z,0.73
2023-10-15T21:40:33.355Z,1.10
2023-10-15T21:43:00.550Z,0.93
2023-10-15T21:45:27.770Z,0.90
2023-10-15T21:47:55.010Z,1.30
2023-10-15T21:50:22.178Z,1.30
2023-10-15T21:52:49.370Z,1.20
2023-10-15T21:55:16.556Z,1.35
2023-10-15T21:57:44.114Z,1.42
2023-10-15T22:00:14.846Z,1.35
2023-10-15T22:02:42.044Z,1.17
2023-10-15T22:05:10.122Z,1.20
2023-10-15T22:07:37.217Z,1.20
2023-10-15T22:10:04.527Z,1.30
2023-10-15T22:12:31.769Z,1.05
2023-10-15T22:15:02.049Z,1.30
2023-10-15T22:17:29.261Z,1.10
2023-10-15T22:19:56.390Z,1.08
2023-10-15T22:22:25.259Z,1.40
2023-10-15T22:24:52.609Z,1.38
2023-10-15T22:27:23.191Z,1.63
2023-10-15T22:29:56.684Z,1.60
2023-10-15T22:32:26.301Z,1.40
2023-10-15T22:34:53.442Z,1.98
2023-10-15T22:37:21.047Z,1.65
2023-10-15T22:39:48.261Z,1.60
2023-10-15T22:42:16.812Z,1.70
2023-10-15T22:44:47.548Z,1.90
2023-10-15T22:47:19.963Z,1.48
2023-10-15T22:49:48.352Z,1.65
2023-10-15T22:52:18.486Z,3.65
2023-10-15T22:54:48.423Z,3.08
2023-10-15T22:57:15.647Z,4.00
2023-10-15T22:59:47.051Z,2.45
2023-10-15T23:02:14.227Z,1.70
2023-10-15T23:04:41.471Z,1.73
2023-10-15T23:07:09.882Z,2.00
2023-10-15T23:09:37.003Z,1.75
2023-10-15T23:12:04.230Z,1.90
2023-10-15T23:14:35.797Z,1.85
2023-10-15T23:17:03.794Z,1.60
2023-10-15T23:19:31.388Z,1.60
2023-10-15T23:22:10.699Z,1.60
2023-10-15T23:24:40.730Z,1.70
2023-10-15T23:27:11.022Z,1.63
2023-10-15T23:29:38.244Z,1.55
2023-10-15T23:32:06.268Z,1.80
2023-10-15T23:34:36.401Z,2.10
2023-10-15T23:37:07.593Z,1.60
2023-10-15T23:39:34.920Z,1.58
2023-10-15T23:42:04.449Z,2.08
2023-10-15T23:44:31.775Z,2.25
2023-10-15T23:47:16.149Z,2.03
2023-10-15T23:49:46.723Z,2.00
2023-10-15T23:52:22.941Z,2.10
2023-10-15T23:54:53.739Z,2.20
2023-10-15T23:57:24.296Z,2.15
2023-10-15T23:59:57.320Z,1.90
